Station History

Weather Underground - logo

Station Historical Data
Daily Summary for January 6, 2018 Units:  Both    English   Metric
« Previous Day
Next Day »
Daily Weekly Monthly Yearly Custom
  High: Low: Average:
Temperature: 64.9 °F /  18.3 °C 54.8 °F /  12.7 °C 59.5 °F /  15.3 °C
Dew Point: 59.2 °F /  15.1 °C 53.7 °F /  12.1 °C 56.1 °F /  13.4 °C
Humidity: 96 % 80 % 89 %
Wind Speed: 5.8 mph /  9.3 km/h - 0.8 mph /  1.3 km/h
Wind Gust: 5.8 mph /  9.3 km/h - -
Wind:- - NW
Pressure: 30.19 in /  1022.2 hPa 30.11 in /  1019.5 hPa -
Precipitation: 0.00 in /  0 mm    
Historical Graphs
 
 
Tabular Data for January 6, 2018
Time Temperature Dew Point Pressure Wind Wind Speed Wind Gust Humidity Rainfall Rate (Hourly)
00:04 58.6 °F /  14.8 °C 54.7 °F /  12.6 °C 30.18 in /  1021.9 hPa Calm     87 % 0.00 in /  0 mm
00:06 58.6 °F /  14.8 °C 54.7 °F /  12.6 °C 30.17 in /  1021.6 hPa Calm     87 % 0.00 in /  0 mm
00:11 58.7 °F /  14.8 °C 54.5 °F /  12.5 °C 30.17 in /  1021.6 hPa Calm     86 % 0.00 in /  0 mm
00:16 58.8 °F /  14.9 °C 54.6 °F /  12.6 °C 30.17 in /  1021.6 hPa Calm     86 % 0.00 in /  0 mm
00:21 59.1 °F /  15.1 °C 54.9 °F /  12.7 °C 30.17 in /  1021.6 hPa North 1.2 mph /  1.9 km/h 1.2 mph /  1.9 km/h 86 % 0.00 in /  0 mm
00:25 59.2 °F /  15.1 °C 54.7 °F /  12.6 °C 30.17 in /  1021.6 hPa Calm     85 % 0.00 in /  0 mm
00:30 59.3 °F /  15.2 °C 54.8 °F /  12.7 °C 30.17 in /  1021.6 hPa Calm     85 % 0.00 in /  0 mm
00:35 59.5 °F /  15.3 °C 54.7 °F /  12.6 °C 30.16 in /  1021.2 hPa NW 2.3 mph /  3.7 km/h 2.3 mph /  3.7 km/h 84 % 0.00 in /  0 mm
00:40 59.8 °F /  15.4 °C 55.0 °F /  12.8 °C 30.16 in /  1021.2 hPa Calm     84 % 0.00 in /  0 mm
00:45 59.9 °F /  15.5 °C 54.7 °F /  12.6 °C 30.16 in /  1021.2 hPa WNW 1.2 mph /  1.9 km/h   83 % 0.00 in /  0 mm
00:50 60.1 °F /  15.6 °C 54.6 °F /  12.6 °C 30.15 in /  1020.9 hPa Calm     82 % 0.00 in /  0 mm
00:51 60.2 °F /  15.7 °C 54.7 °F /  12.6 °C 30.15 in /  1020.9 hPa Calm     82 % 0.00 in /  0 mm
00:53 60.3 °F /  15.7 °C 54.8 °F /  12.7 °C 30.15 in /  1020.9 hPa WNW 1.2 mph /  1.9 km/h   82 % 0.00 in /  0 mm
00:58 60.3 °F /  15.7 °C 54.8 °F /  12.7 °C 30.15 in /  1020.9 hPa NNW 1.2 mph /  1.9 km/h 1.2 mph /  1.9 km/h 82 % 0.00 in /  0 mm
01:01 60.4 °F /  15.8 °C 54.9 °F /  12.7 °C 30.15 in /  1020.9 hPa NW 2.3 mph /  3.7 km/h 2.3 mph /  3.7 km/h 82 % 0.00 in /  0 mm
01:06 60.5 °F /  15.8 °C 54.6 °F /  12.6 °C 30.14 in /  1020.5 hPa WNW 1.2 mph /  1.9 km/h 1.2 mph /  1.9 km/h 81 % 0.00 in /  0 mm
01:07 60.5 °F /  15.8 °C 54.6 °F /  12.6 °C 30.14 in /  1020.5 hPa NW 1.2 mph /  1.9 km/h 1.2 mph /  1.9 km/h 81 % 0.00 in /  0 mm
01:12 60.6 °F /  15.9 °C 54.7 °F /  12.6 °C 30.14 in /  1020.5 hPa Calm     81 % 0.00 in /  0 mm
01:16 60.5 °F /  15.8 °C 54.6 °F /  12.6 °C 30.15 in /  1020.9 hPa WNW 1.2 mph /  1.9 km/h   81 % 0.00 in /  0 mm
01:21 60.4 °F /  15.8 °C 54.5 °F /  12.5 °C 30.14 in /  1020.5 hPa NW 1.2 mph /  1.9 km/h   81 % 0.00 in /  0 mm
01:26 60.4 °F /  15.8 °C 54.5 °F /  12.5 °C 30.14 in /  1020.5 hPa Calm     81 % 0.00 in /  0 mm
01:34 60.3 °F /  15.7 °C 54.4 °F /  12.4 °C 30.14 in /  1020.5 hPa Calm     81 % 0.00 in /  0 mm
01:38 60.3 °F /  15.7 °C 54.4 °F /  12.4 °C 30.14 in /  1020.5 hPa Calm     81 % 0.00 in /  0 mm
01:44 60.1 °F /  15.6 °C 54.6 °F /  12.6 °C 30.14 in /  1020.5 hPa Calm   0.1 mph /  0.2 km/h 82 % 0.00 in /  0 mm
01:49 59.9 °F /  15.5 °C 54.4 °F /  12.4 °C 30.14 in /  1020.5 hPa NW 1.2 mph /  1.9 km/h 1.2 mph /  1.9 km/h 82 % 0.00 in /  0 mm
01:54 59.9 °F /  15.5 °C 54.4 °F /  12.4 °C 30.14 in /  1020.5 hPa NNW 1.2 mph /  1.9 km/h   82 % 0.00 in /  0 mm
01:58 59.9 °F /  15.5 °C 54.4 °F /  12.4 °C 30.15 in /  1020.9 hPa Calm     82 % 0.00 in /  0 mm
02:07 59.3 °F /  15.2 °C 54.1 °F /  12.3 °C 30.14 in /  1020.5 hPa Calm     83 % 0.00 in /  0 mm
02:13 59.2 °F /  15.1 °C 54.4 °F /  12.4 °C 30.14 in /  1020.5 hPa Calm     84 % 0.00 in /  0 mm
02:15 59.1 °F /  15.1 °C 54.3 °F /  12.4 °C 30.14 in /  1020.5 hPa Calm     84 % 0.00 in /  0 mm
02:18 59.1 °F /  15.1 °C 54.3 °F /  12.4 °C 30.13 in /  1020.2 hPa NNW 1.2 mph /  1.9 km/h 1.2 mph /  1.9 km/h 84 % 0.00 in /  0 mm
02:23 59.0 °F /  15 °C 54.2 °F /  12.3 °C 30.13 in /  1020.2 hPa Calm     84 % 0.00 in /  0 mm
02:28 59.1 °F /  15.1 °C 54.3 °F /  12.4 °C 30.12 in /  1019.9 hPa Calm   0.1 mph /  0.2 km/h 84 % 0.00 in /  0 mm
02:33 59.3 °F /  15.2 °C 54.5 °F /  12.5 °C 30.12 in /  1019.9 hPa WNW 1.2 mph /  1.9 km/h 1.2 mph /  1.9 km/h 84 % 0.00 in /  0 mm
02:38 59.5 °F /  15.3 °C 54.3 °F /  12.4 °C 30.12 in /  1019.9 hPa NW 1.2 mph /  1.9 km/h 1.2 mph /  1.9 km/h 83 % 0.00 in /  0 mm
02:43 59.8 °F /  15.4 °C 54.6 °F /  12.6 °C 30.12 in /  1019.9 hPa NNW 2.3 mph /  3.7 km/h 2.3 mph /  3.7 km/h 83 % 0.00 in /  0 mm
02:48 60.1 °F /  15.6 °C 54.6 °F /  12.6 °C 30.12 in /  1019.9 hPa Calm     82 % 0.00 in /  0 mm
02:53 60.4 °F /  15.8 °C 54.5 °F /  12.5 °C 30.11 in /  1019.5 hPa WNW 1.2 mph /  1.9 km/h   81 % 0.00 in /  0 mm
02:58 60.6 °F /  15.9 °C 54.7 °F /  12.6 °C 30.12 in /  1019.9 hPa Calm     81 % 0.00 in /  0 mm
03:04 60.6 °F /  15.9 °C 54.7 °F /  12.6 °C 30.11 in /  1019.5 hPa Calm     81 % 0.00 in /  0 mm
03:09 60.7 °F /  15.9 °C 54.5 °F /  12.5 °C 30.11 in /  1019.5 hPa Calm     80 % 0.00 in /  0 mm
03:10 60.8 °F /  16 °C 54.6 °F /  12.6 °C 30.11 in /  1019.5 hPa Calm     80 % 0.00 in /  0 mm
03:15 60.9 °F /  16.1 °C 54.7 °F /  12.6 °C 30.12 in /  1019.9 hPa NW 1.2 mph /  1.9 km/h 1.2 mph /  1.9 km/h 80 % 0.00 in /  0 mm
03:16 60.9 °F /  16.1 °C 54.7 °F /  12.6 °C 30.12 in /  1019.9 hPa NW 1.2 mph /  1.9 km/h 1.2 mph /  1.9 km/h 80 % 0.00 in /  0 mm
03:21 60.4 °F /  15.8 °C 54.5 °F /  12.5 °C 30.12 in /  1019.9 hPa NW 1.2 mph /  1.9 km/h 1.2 mph /  1.9 km/h 81 % 0.00 in /  0 mm
03:23 60.2 °F /  15.7 °C 54.7 °F /  12.6 °C 30.12 in /  1019.9 hPa NW 1.2 mph /  1.9 km/h 1.2 mph /  1.9 km/h 82 % 0.00 in /  0 mm
03:28 59.6 °F /  15.3 °C 54.4 °F /  12.4 °C 30.12 in /  1019.9 hPa NW 1.2 mph /  1.9 km/h 1.2 mph /  1.9 km/h 83 % 0.00 in /  0 mm
03:33 59.3 °F /  15.2 °C 54.1 °F /  12.3 °C 30.12 in /  1019.9 hPa Calm     83 % 0.00 in /  0 mm
03:38 59.1 °F /  15.1 °C 54.3 °F /  12.4 °C 30.12 in /  1019.9 hPa Calm     84 % 0.00 in /  0 mm
03:43 58.8 °F /  14.9 °C 54.0 °F /  12.2 °C 30.13 in /  1020.2 hPa Calm     84 % 0.00 in /  0 mm
03:48 58.5 °F /  14.7 °C 54.0 °F /  12.2 °C 30.13 in /  1020.2 hPa NW 1.2 mph /  1.9 km/h 1.2 mph /  1.9 km/h 85 % 0.00 in /  0 mm
03:51 58.4 °F /  14.7 °C 53.9 °F /  12.2 °C 30.13 in /  1020.2 hPa NW 1.2 mph /  1.9 km/h 1.2 mph /  1.9 km/h 85 % 0.00 in /  0 mm
03:55 58.4 °F /  14.7 °C 53.9 °F /  12.2 °C 30.13 in /  1020.2 hPa Calm     85 % 0.00 in /  0 mm
03:59 58.5 °F /  14.7 °C 54.3 °F /  12.4 °C 30.14 in /  1020.5 hPa NW 2.3 mph /  3.7 km/h 2.3 mph /  3.7 km/h 86 % 0.00 in /  0 mm
04:04 58.8 °F /  14.9 °C 54.6 °F /  12.6 °C 30.14 in /  1020.5 hPa NNE 1.2 mph /  1.9 km/h 1.2 mph /  1.9 km/h 86 % 0.00 in /  0 mm
04:06 58.8 °F /  14.9 °C 54.6 °F /  12.6 °C 30.14 in /  1020.5 hPa NW 1.2 mph /  1.9 km/h 1.2 mph /  1.9 km/h 86 % 0.00 in /  0 mm
04:11 58.9 °F /  14.9 °C 54.7 °F /  12.6 °C 30.14 in /  1020.5 hPa Calm     86 % 0.00 in /  0 mm
04:16 58.9 °F /  14.9 °C 54.7 °F /  12.6 °C 30.14 in /  1020.5 hPa Calm     86 % 0.00 in /  0 mm
04:20 58.9 °F /  14.9 °C 55.0 °F /  12.8 °C 30.14 in /  1020.5 hPa NW 1.0 mph /  1.6 km/h 1.0 mph /  1.6 km/h 87 % 0.00 in /  0 mm
04:25 58.8 °F /  14.9 °C 54.9 °F /  12.7 °C 30.14 in /  1020.5 hPa Calm     87 % 0.00 in /  0 mm
04:30 58.7 °F /  14.8 °C 54.8 °F /  12.7 °C 30.14 in /  1020.5 hPa Calm     87 % 0.00 in /  0 mm
04:31 58.7 °F /  14.8 °C 54.8 °F /  12.7 °C 30.14 in /  1020.5 hPa Calm     87 % 0.00 in /  0 mm
04:36 58.6 °F /  14.8 °C 55.1 °F /  12.8 °C 30.14 in /  1020.5 hPa Calm     88 % 0.00 in /  0 mm
04:40 58.4 °F /  14.7 °C 54.9 °F /  12.7 °C 30.14 in /  1020.5 hPa Calm     88 % 0.00 in /  0 mm
04:45 58.2 °F /  14.6 °C 55.0 °F /  12.8 °C 30.15 in /  1020.9 hPa Calm     89 % 0.00 in /  0 mm
04:50 58.2 °F /  14.6 °C 55.0 °F /  12.8 °C 30.15 in /  1020.9 hPa Calm     89 % 0.00 in /  0 mm
04:55 58.2 °F /  14.6 °C 55.0 °F /  12.8 °C 30.15 in /  1020.9 hPa Calm     89 % 0.00 in /  0 mm
05:00 58.1 °F /  14.5 °C 54.9 °F /  12.7 °C 30.16 in /  1021.2 hPa Calm     89 % 0.00 in /  0 mm
05:05 58.1 °F /  14.5 °C 55.2 °F /  12.9 °C 30.16 in /  1021.2 hPa Calm     90 % 0.00 in /  0 mm
05:10 58.0 °F /  14.4 °C 55.1 °F /  12.8 °C 30.16 in /  1021.2 hPa Calm     90 % 0.00 in /  0 mm
05:15 57.8 °F /  14.3 °C 54.9 °F /  12.7 °C 30.16 in /  1021.2 hPa Calm     90 % 0.00 in /  0 mm
05:20 57.7 °F /  14.3 °C 54.8 °F /  12.7 °C 30.17 in /  1021.6 hPa Calm     90 % 0.00 in /  0 mm
05:21 57.7 °F /  14.3 °C 54.8 °F /  12.7 °C 30.17 in /  1021.6 hPa Calm     90 % 0.00 in /  0 mm
05:26 57.6 °F /  14.2 °C 55.0 °F /  12.8 °C 30.17 in /  1021.6 hPa Calm     91 % 0.00 in /  0 mm
05:27 57.6 °F /  14.2 °C 55.0 °F /  12.8 °C 30.17 in /  1021.6 hPa Calm     91 % 0.00 in /  0 mm
05:32 57.3 °F /  14.1 °C 54.7 °F /  12.6 °C 30.17 in /  1021.6 hPa Calm     91 % 0.00 in /  0 mm
05:34 57.2 °F /  14 °C 54.9 °F /  12.7 °C 30.17 in /  1021.6 hPa Calm     92 % 0.00 in /  0 mm
05:39 57.1 °F /  13.9 °C 54.8 °F /  12.7 °C 30.17 in /  1021.6 hPa Calm     92 % 0.00 in /  0 mm
05:44 57.0 °F /  13.9 °C 54.7 °F /  12.6 °C 30.17 in /  1021.6 hPa Calm     92 % 0.00 in /  0 mm
05:49 56.8 °F /  13.8 °C 54.5 °F /  12.5 °C 30.17 in /  1021.6 hPa Calm     92 % 0.00 in /  0 mm
05:54 56.7 °F /  13.7 °C 54.7 °F /  12.6 °C 30.17 in /  1021.6 hPa Calm     93 % 0.00 in /  0 mm
05:59 56.6 °F /  13.7 °C 54.6 °F /  12.6 °C 30.17 in /  1021.6 hPa SE 1.2 mph /  1.9 km/h   93 % 0.00 in /  0 mm
06:04 56.5 °F /  13.6 °C 54.5 °F /  12.5 °C 30.17 in /  1021.6 hPa Calm     93 % 0.00 in /  0 mm
06:09 56.4 °F /  13.6 °C 54.4 °F /  12.4 °C 30.17 in /  1021.6 hPa Calm     93 % 0.00 in /  0 mm
06:10 56.4 °F /  13.6 °C 54.4 °F /  12.4 °C 30.17 in /  1021.6 hPa Calm     93 % 0.00 in /  0 mm
06:11 56.4 °F /  13.6 °C 54.4 °F /  12.4 °C 30.17 in /  1021.6 hPa Calm     93 % 0.00 in /  0 mm
06:16 56.3 °F /  13.5 °C 54.3 °F /  12.4 °C 30.17 in /  1021.6 hPa Calm     93 % 0.00 in /  0 mm
06:21 56.2 °F /  13.4 °C 54.2 °F /  12.3 °C 30.17 in /  1021.6 hPa Calm     93 % 0.00 in /  0 mm
06:26 56.1 °F /  13.4 °C 54.1 °F /  12.3 °C 30.17 in /  1021.6 hPa Calm     93 % 0.00 in /  0 mm
06:31 56.1 °F /  13.4 °C 54.4 °F /  12.4 °C 30.17 in /  1021.6 hPa Calm     94 % 0.00 in /  0 mm
06:36 56.0 °F /  13.3 °C 54.3 °F /  12.4 °C 30.17 in /  1021.6 hPa Calm     94 % 0.00 in /  0 mm
06:41 55.9 °F /  13.3 °C 54.2 °F /  12.3 °C 30.17 in /  1021.6 hPa Calm     94 % 0.00 in /  0 mm
06:46 55.8 °F /  13.2 °C 54.1 °F /  12.3 °C 30.17 in /  1021.6 hPa Calm     94 % 0.00 in /  0 mm
06:51 55.8 °F /  13.2 °C 54.1 °F /  12.3 °C 30.18 in /  1021.9 hPa Calm     94 % 0.00 in /  0 mm
06:58 55.8 °F /  13.2 °C 54.1 °F /  12.3 °C 30.18 in /  1021.9 hPa Calm     94 % 0.00 in /  0 mm
07:03 55.8 °F /  13.2 °C 54.1 °F /  12.3 °C 30.18 in /  1021.9 hPa Calm     94 % 0.00 in /  0 mm
07:08 55.7 °F /  13.2 °C 54.0 °F /  12.2 °C 30.18 in /  1021.9 hPa Calm     94 % 0.00 in /  0 mm
07:10 55.7 °F /  13.2 °C 54.0 °F /  12.2 °C 30.18 in /  1021.9 hPa Calm     94 % 0.00 in /  0 mm
07:15 55.8 °F /  13.2 °C 54.1 °F /  12.3 °C 30.19 in /  1022.2 hPa Calm     94 % 0.00 in /  0 mm
07:19 55.7 °F /  13.2 °C 54.0 °F /  12.2 °C 30.18 in /  1021.9 hPa Calm     94 % 0.00 in /  0 mm
07:24 55.7 °F /  13.2 °C 54.0 °F /  12.2 °C 30.18 in /  1021.9 hPa WNW 1.2 mph /  1.9 km/h 1.2 mph /  1.9 km/h 94 % 0.00 in /  0 mm
07:29 55.6 °F /  13.1 °C 53.9 °F /  12.2 °C 30.19 in /  1022.2 hPa Calm     94 % 0.00 in /  0 mm
07:34 55.6 °F /  13.1 °C 53.9 °F /  12.2 °C 30.19 in /  1022.2 hPa Calm     94 % 0.00 in /  0 mm
07:37 55.6 °F /  13.1 °C 54.2 °F /  12.3 °C 30.18 in /  1021.9 hPa Calm     95 % 0.00 in /  0 mm
07:42 55.7 °F /  13.2 °C 54.3 °F /  12.4 °C 30.18 in /  1021.9 hPa Calm     95 % 0.00 in /  0 mm
07:44 55.8 °F /  13.2 °C 54.4 °F /  12.4 °C 30.18 in /  1021.9 hPa Calm     95 % 0.00 in /  0 mm
07:49 55.9 °F /  13.3 °C 54.5 °F /  12.5 °C 30.19 in /  1022.2 hPa Calm     95 % 0.00 in /  0 mm
07:54 56.1 °F /  13.4 °C 54.7 °F /  12.6 °C 30.19 in /  1022.2 hPa Calm     95 % 0.00 in /  0 mm
08:00 56.4 °F /  13.6 °C 55.0 °F /  12.8 °C 30.19 in /  1022.2 hPa Calm     95 % 0.00 in /  0 mm
08:06 56.6 °F /  13.7 °C 54.9 °F /  12.7 °C 30.18 in /  1021.9 hPa Calm     94 % 0.00 in /  0 mm
08:11 56.7 °F /  13.7 °C 55.0 °F /  12.8 °C 30.18 in /  1021.9 hPa Calm     94 % 0.00 in /  0 mm
08:13 56.8 °F /  13.8 °C 55.1 °F /  12.8 °C 30.18 in /  1021.9 hPa Calm     94 % 0.00 in /  0 mm
08:18 56.9 °F /  13.8 °C 55.2 °F /  12.9 °C 30.17 in /  1021.6 hPa WNW 1.2 mph /  1.9 km/h   94 % 0.00 in /  0 mm
08:23 57.1 °F /  13.9 °C 55.4 °F /  13 °C 30.17 in /  1021.6 hPa WNW 1.2 mph /  1.9 km/h 1.2 mph /  1.9 km/h 94 % 0.00 in /  0 mm
08:28 57.2 °F /  14 °C 55.2 °F /  12.9 °C 30.17 in /  1021.6 hPa WNW 1.2 mph /  1.9 km/h   93 % 0.00 in /  0 mm
08:33 57.4 °F /  14.1 °C 55.4 °F /  13 °C 30.17 in /  1021.6 hPa NW 1.2 mph /  1.9 km/h   93 % 0.00 in /  0 mm
08:38 57.6 °F /  14.2 °C 55.6 °F /  13.1 °C 30.17 in /  1021.6 hPa NW 1.2 mph /  1.9 km/h   93 % 0.00 in /  0 mm
08:44 58.0 °F /  14.4 °C 56.0 °F /  13.3 °C 30.18 in /  1021.9 hPa NNW 2.3 mph /  3.7 km/h 2.3 mph /  3.7 km/h 93 % 0.00 in /  0 mm
08:47 58.4 °F /  14.7 °C 56.4 °F /  13.6 °C 30.18 in /  1021.9 hPa NW 2.3 mph /  3.7 km/h 2.3 mph /  3.7 km/h 93 % 0.00 in /  0 mm
08:52 58.7 °F /  14.8 °C 56.4 °F /  13.6 °C 30.17 in /  1021.6 hPa NW 3.5 mph /  5.6 km/h 3.5 mph /  5.6 km/h 92 % 0.00 in /  0 mm
08:57 58.8 °F /  14.9 °C 56.5 °F /  13.6 °C 30.17 in /  1021.6 hPa NW 3.0 mph /  4.8 km/h 3.0 mph /  4.8 km/h 92 % 0.00 in /  0 mm
09:01 58.8 °F /  14.9 °C 56.2 °F /  13.4 °C 30.17 in /  1021.6 hPa NW 2.3 mph /  3.7 km/h 2.3 mph /  3.7 km/h 91 % 0.00 in /  0 mm
09:06 58.8 °F /  14.9 °C 56.2 °F /  13.4 °C 30.17 in /  1021.6 hPa North 1.2 mph /  1.9 km/h 1.2 mph /  1.9 km/h 91 % 0.00 in /  0 mm
09:09 58.8 °F /  14.9 °C 56.2 °F /  13.4 °C 30.17 in /  1021.6 hPa NW 2.3 mph /  3.7 km/h 2.3 mph /  3.7 km/h 91 % 0.00 in /  0 mm
09:14 58.8 °F /  14.9 °C 56.5 °F /  13.6 °C 30.17 in /  1021.6 hPa NNW 3.5 mph /  5.6 km/h 3.5 mph /  5.6 km/h 92 % 0.00 in /  0 mm
09:19 58.8 °F /  14.9 °C 56.5 °F /  13.6 °C 30.17 in /  1021.6 hPa NNW 3.5 mph /  5.6 km/h 3.5 mph /  5.6 km/h 92 % 0.00 in /  0 mm
09:24 58.9 °F /  14.9 °C 56.6 °F /  13.7 °C 30.18 in /  1021.9 hPa NW 1.2 mph /  1.9 km/h 1.2 mph /  1.9 km/h 92 % 0.00 in /  0 mm
09:34 59.2 °F /  15.1 °C 56.9 °F /  13.8 °C 30.18 in /  1021.9 hPa NW 1.0 mph /  1.6 km/h 1.0 mph /  1.6 km/h 92 % 0.00 in /  0 mm
09:39 59.5 °F /  15.3 °C 56.9 °F /  13.8 °C 30.18 in /  1021.9 hPa NW 1.2 mph /  1.9 km/h 1.2 mph /  1.9 km/h 91 % 0.00 in /  0 mm
09:45 59.8 °F /  15.4 °C 57.2 °F /  14 °C 30.18 in /  1021.9 hPa NW 1.2 mph /  1.9 km/h 1.2 mph /  1.9 km/h 91 % 0.00 in /  0 mm
09:50 60.1 °F /  15.6 °C 57.2 °F /  14 °C 30.18 in /  1021.9 hPa Calm     90 % 0.00 in /  0 mm
09:55 60.4 °F /  15.8 °C 57.5 °F /  14.2 °C 30.18 in /  1021.9 hPa Calm     90 % 0.00 in /  0 mm
09:59 60.6 °F /  15.9 °C 57.7 °F /  14.3 °C 30.18 in /  1021.9 hPa North 1.0 mph /  1.6 km/h 1.0 mph /  1.6 km/h 90 % 0.00 in /  0 mm
10:04 60.9 °F /  16.1 °C 57.6 °F /  14.2 °C 30.18 in /  1021.9 hPa Calm     89 % 0.00 in /  0 mm
10:10 61.3 °F /  16.3 °C 57.7 °F /  14.3 °C 30.18 in /  1021.9 hPa NNW 1.2 mph /  1.9 km/h   88 % 0.00 in /  0 mm
10:15 61.7 °F /  16.5 °C 57.8 °F /  14.3 °C 30.18 in /  1021.9 hPa Calm     87 % 0.00 in /  0 mm
10:18 62.1 °F /  16.7 °C 58.2 °F /  14.6 °C 30.18 in /  1021.9 hPa Calm   0.1 mph /  0.2 km/h 87 % 0.00 in /  0 mm
10:23 62.8 °F /  17.1 °C 58.5 °F /  14.7 °C 30.18 in /  1021.9 hPa Calm     86 % 0.00 in /  0 mm
10:24 62.8 °F /  17.1 °C 58.5 °F /  14.7 °C 30.18 in /  1021.9 hPa Calm     86 % 0.00 in /  0 mm
10:29 63.1 °F /  17.3 °C 58.2 °F /  14.6 °C 30.18 in /  1021.9 hPa NW 1.2 mph /  1.9 km/h   84 % 0.00 in /  0 mm
10:31 63.1 °F /  17.3 °C 58.2 °F /  14.6 °C 30.18 in /  1021.9 hPa Calm     84 % 0.00 in /  0 mm
10:36 63.3 °F /  17.4 °C 58.4 °F /  14.7 °C 30.18 in /  1021.9 hPa Calm     84 % 0.00 in /  0 mm
10:41 63.6 °F /  17.6 °C 58.3 °F /  14.6 °C 30.18 in /  1021.9 hPa Calm     83 % 0.00 in /  0 mm
10:46 63.7 °F /  17.6 °C 58.4 °F /  14.7 °C 30.19 in /  1022.2 hPa Calm     83 % 0.00 in /  0 mm
10:51 64.0 °F /  17.8 °C 58.4 °F /  14.7 °C 30.18 in /  1021.9 hPa Calm     82 % 0.00 in /  0 mm
10:56 64.4 °F /  18 °C 58.4 °F /  14.7 °C 30.18 in /  1021.9 hPa WNW 1.0 mph /  1.6 km/h   81 % 0.00 in /  0 mm
10:58 64.5 °F /  18.1 °C 58.2 °F /  14.6 °C 30.18 in /  1021.9 hPa NW 2.0 mph /  3.2 km/h 2.0 mph /  3.2 km/h 80 % 0.00 in /  0 mm
11:04 64.4 °F /  18 °C 58.8 °F /  14.9 °C 30.18 in /  1021.9 hPa WNW 2.3 mph /  3.7 km/h 2.3 mph /  3.7 km/h 82 % 0.00 in /  0 mm
11:05 64.4 °F /  18 °C 58.8 °F /  14.9 °C 30.18 in /  1021.9 hPa NW 1.2 mph /  1.9 km/h 1.2 mph /  1.9 km/h 82 % 0.00 in /  0 mm
11:08 64.3 °F /  17.9 °C 58.7 °F /  14.8 °C 30.18 in /  1021.9 hPa NW 2.0 mph /  3.2 km/h 2.0 mph /  3.2 km/h 82 % 0.00 in /  0 mm
11:13 64.0 °F /  17.8 °C 58.4 °F /  14.7 °C 30.18 in /  1021.9 hPa NW 1.2 mph /  1.9 km/h 1.2 mph /  1.9 km/h 82 % 0.00 in /  0 mm
11:15 64.0 °F /  17.8 °C 58.4 °F /  14.7 °C 30.18 in /  1021.9 hPa WNW 1.2 mph /  1.9 km/h 1.2 mph /  1.9 km/h 82 % 0.00 in /  0 mm
11:20 63.8 °F /  17.7 °C 58.5 °F /  14.7 °C 30.17 in /  1021.6 hPa NW 1.2 mph /  1.9 km/h 1.2 mph /  1.9 km/h 83 % 0.00 in /  0 mm
11:25 63.8 °F /  17.7 °C 58.2 °F /  14.6 °C 30.17 in /  1021.6 hPa NW 2.3 mph /  3.7 km/h 2.3 mph /  3.7 km/h 82 % 0.00 in /  0 mm
11:26 63.8 °F /  17.7 °C 58.2 °F /  14.6 °C 30.18 in /  1021.9 hPa West 1.2 mph /  1.9 km/h 1.2 mph /  1.9 km/h 82 % 0.00 in /  0 mm
11:31 63.7 °F /  17.6 °C 58.1 °F /  14.5 °C 30.17 in /  1021.6 hPa NNW 2.3 mph /  3.7 km/h 2.3 mph /  3.7 km/h 82 % 0.00 in /  0 mm
11:36 63.7 °F /  17.6 °C 58.4 °F /  14.7 °C 30.17 in /  1021.6 hPa WSW 1.2 mph /  1.9 km/h 1.2 mph /  1.9 km/h 83 % 0.00 in /  0 mm
11:37 63.8 °F /  17.7 °C 58.5 °F /  14.7 °C 30.17 in /  1021.6 hPa WSW 1.2 mph /  1.9 km/h 1.2 mph /  1.9 km/h 83 % 0.00 in /  0 mm
11:48 63.9 °F /  17.7 °C 58.3 °F /  14.6 °C 30.16 in /  1021.2 hPa West 2.3 mph /  3.7 km/h 2.3 mph /  3.7 km/h 82 % 0.00 in /  0 mm
12:33 64.8 °F /  18.2 °C 58.5 °F /  14.7 °C 30.14 in /  1020.5 hPa Calm     80 % 0.00 in /  0 mm
12:38 64.8 °F /  18.2 °C 58.5 °F /  14.7 °C 30.14 in /  1020.5 hPa NNW 1.2 mph /  1.9 km/h 1.2 mph /  1.9 km/h 80 % 0.00 in /  0 mm
12:40 64.8 °F /  18.2 °C 58.5 °F /  14.7 °C 30.14 in /  1020.5 hPa NNW 1.2 mph /  1.9 km/h 1.2 mph /  1.9 km/h 80 % 0.00 in /  0 mm
12:43 64.9 °F /  18.3 °C 58.6 °F /  14.8 °C 30.14 in /  1020.5 hPa NW 1.2 mph /  1.9 km/h 1.2 mph /  1.9 km/h 80 % 0.00 in /  0 mm
12:50 64.7 °F /  18.2 °C 58.7 °F /  14.8 °C 30.14 in /  1020.5 hPa NW 1.2 mph /  1.9 km/h 1.2 mph /  1.9 km/h 81 % 0.00 in /  0 mm
12:51 64.6 °F /  18.1 °C 58.6 °F /  14.8 °C 30.14 in /  1020.5 hPa NW 1.2 mph /  1.9 km/h 1.2 mph /  1.9 km/h 81 % 0.00 in /  0 mm
12:56 64.5 °F /  18.1 °C 58.5 °F /  14.7 °C 30.14 in /  1020.5 hPa NW 1.2 mph /  1.9 km/h   81 % 0.00 in /  0 mm
13:01 64.4 °F /  18 °C 58.4 °F /  14.7 °C 30.14 in /  1020.5 hPa NW 1.2 mph /  1.9 km/h 1.2 mph /  1.9 km/h 81 % 0.00 in /  0 mm
13:02 64.4 °F /  18 °C 58.4 °F /  14.7 °C 30.14 in /  1020.5 hPa NW 1.2 mph /  1.9 km/h 1.2 mph /  1.9 km/h 81 % 0.00 in /  0 mm
13:07 64.3 °F /  17.9 °C 58.3 °F /  14.6 °C 30.14 in /  1020.5 hPa NW 3.5 mph /  5.6 km/h 3.5 mph /  5.6 km/h 81 % 0.00 in /  0 mm
13:11 64.2 °F /  17.9 °C 58.6 °F /  14.8 °C 30.14 in /  1020.5 hPa NW 2.3 mph /  3.7 km/h 2.3 mph /  3.7 km/h 82 % 0.00 in /  0 mm
13:13 64.2 °F /  17.9 °C 58.6 °F /  14.8 °C 30.14 in /  1020.5 hPa North 3.5 mph /  5.6 km/h 3.5 mph /  5.6 km/h 82 % 0.00 in /  0 mm
13:15 64.2 °F /  17.9 °C 58.6 °F /  14.8 °C 30.14 in /  1020.5 hPa NW 2.3 mph /  3.7 km/h 2.3 mph /  3.7 km/h 82 % 0.00 in /  0 mm
13:16 64.1 °F /  17.8 °C 58.5 °F /  14.7 °C 30.14 in /  1020.5 hPa NW 2.3 mph /  3.7 km/h 2.3 mph /  3.7 km/h 82 % 0.00 in /  0 mm
13:22 64.0 °F /  17.8 °C 58.4 °F /  14.7 °C 30.14 in /  1020.5 hPa WNW 3.5 mph /  5.6 km/h 3.5 mph /  5.6 km/h 82 % 0.00 in /  0 mm
13:27 63.8 °F /  17.7 °C 58.2 °F /  14.6 °C 30.15 in /  1020.9 hPa NW 3.5 mph /  5.6 km/h 3.5 mph /  5.6 km/h 82 % 0.00 in /  0 mm
13:32 63.7 °F /  17.6 °C 58.4 °F /  14.7 °C 30.15 in /  1020.9 hPa NW 3.5 mph /  5.6 km/h 3.5 mph /  5.6 km/h 83 % 0.00 in /  0 mm
13:35 63.7 °F /  17.6 °C 58.4 °F /  14.7 °C 30.15 in /  1020.9 hPa NW 3.5 mph /  5.6 km/h 3.5 mph /  5.6 km/h 83 % 0.00 in /  0 mm
13:38 63.6 °F /  17.6 °C 58.7 °F /  14.8 °C 30.15 in /  1020.9 hPa NW 4.6 mph /  7.4 km/h 4.6 mph /  7.4 km/h 84 % 0.00 in /  0 mm
13:43 63.5 °F /  17.5 °C 58.6 °F /  14.8 °C 30.15 in /  1020.9 hPa NW 2.3 mph /  3.7 km/h 2.3 mph /  3.7 km/h 84 % 0.00 in /  0 mm
13:48 63.5 °F /  17.5 °C 58.6 °F /  14.8 °C 30.15 in /  1020.9 hPa NW 3.5 mph /  5.6 km/h 3.5 mph /  5.6 km/h 84 % 0.00 in /  0 mm
13:53 63.5 °F /  17.5 °C 58.9 °F /  14.9 °C 30.15 in /  1020.9 hPa WNW 3.5 mph /  5.6 km/h 3.5 mph /  5.6 km/h 85 % 0.00 in /  0 mm
13:58 63.4 °F /  17.4 °C 58.8 °F /  14.9 °C 30.15 in /  1020.9 hPa NNW 5.8 mph /  9.3 km/h 5.8 mph /  9.3 km/h 85 % 0.00 in /  0 mm
14:03 63.4 °F /  17.4 °C 58.8 °F /  14.9 °C 30.15 in /  1020.9 hPa NW 5.8 mph /  9.3 km/h 5.8 mph /  9.3 km/h 85 % 0.00 in /  0 mm
14:04 63.4 °F /  17.4 °C 58.8 °F /  14.9 °C 30.15 in /  1020.9 hPa WNW 2.3 mph /  3.7 km/h 2.3 mph /  3.7 km/h 85 % 0.00 in /  0 mm
14:10 63.4 °F /  17.4 °C 58.8 °F /  14.9 °C 30.15 in /  1020.9 hPa NW 1.2 mph /  1.9 km/h 1.2 mph /  1.9 km/h 85 % 0.00 in /  0 mm
14:15 63.4 °F /  17.4 °C 58.8 °F /  14.9 °C 30.15 in /  1020.9 hPa WNW 2.3 mph /  3.7 km/h 2.3 mph /  3.7 km/h 85 % 0.00 in /  0 mm
14:20 63.5 °F /  17.5 °C 58.9 °F /  14.9 °C 30.15 in /  1020.9 hPa NW 1.2 mph /  1.9 km/h 1.2 mph /  1.9 km/h 85 % 0.00 in /  0 mm
14:23 63.5 °F /  17.5 °C 58.9 °F /  14.9 °C 30.15 in /  1020.9 hPa NW 2.3 mph /  3.7 km/h 2.3 mph /  3.7 km/h 85 % 0.00 in /  0 mm
14:28 63.5 °F /  17.5 °C 58.9 °F /  14.9 °C 30.14 in /  1020.5 hPa NW 3.5 mph /  5.6 km/h 3.5 mph /  5.6 km/h 85 % 0.00 in /  0 mm
14:31 63.5 °F /  17.5 °C 58.9 °F /  14.9 °C 30.14 in /  1020.5 hPa NW 2.3 mph /  3.7 km/h 2.3 mph /  3.7 km/h 85 % 0.00 in /  0 mm
14:36 63.4 °F /  17.4 °C 58.8 °F /  14.9 °C 30.14 in /  1020.5 hPa North 3.0 mph /  4.8 km/h 3.0 mph /  4.8 km/h 85 % 0.00 in /  0 mm
14:41 63.4 °F /  17.4 °C 58.8 °F /  14.9 °C 30.14 in /  1020.5 hPa NW 1.2 mph /  1.9 km/h   85 % 0.00 in /  0 mm
14:46 63.4 °F /  17.4 °C 58.8 °F /  14.9 °C 30.14 in /  1020.5 hPa NW 1.0 mph /  1.6 km/h 1.0 mph /  1.6 km/h 85 % 0.00 in /  0 mm
14:50 63.4 °F /  17.4 °C 58.8 °F /  14.9 °C 30.14 in /  1020.5 hPa WNW 1.2 mph /  1.9 km/h 1.2 mph /  1.9 km/h 85 % 0.00 in /  0 mm
14:55 63.5 °F /  17.5 °C 58.9 °F /  14.9 °C 30.14 in /  1020.5 hPa NW 1.2 mph /  1.9 km/h 1.2 mph /  1.9 km/h 85 % 0.00 in /  0 mm
15:00 63.6 °F /  17.6 °C 59.0 °F /  15 °C 30.13 in /  1020.2 hPa NW 1.2 mph /  1.9 km/h 1.2 mph /  1.9 km/h 85 % 0.00 in /  0 mm
15:05 63.7 °F /  17.6 °C 59.1 °F /  15.1 °C 30.13 in /  1020.2 hPa Calm     85 % 0.00 in /  0 mm
15:10 63.8 °F /  17.7 °C 58.9 °F /  14.9 °C 30.13 in /  1020.2 hPa NW 1.2 mph /  1.9 km/h 1.2 mph /  1.9 km/h 84 % 0.00 in /  0 mm
15:15 63.9 °F /  17.7 °C 59.0 °F /  15 °C 30.13 in /  1020.2 hPa NW 1.2 mph /  1.9 km/h 1.2 mph /  1.9 km/h 84 % 0.00 in /  0 mm
15:20 64.0 °F /  17.8 °C 59.1 °F /  15.1 °C 30.13 in /  1020.2 hPa NW 1.2 mph /  1.9 km/h 1.2 mph /  1.9 km/h 84 % 0.00 in /  0 mm
15:25 64.1 °F /  17.8 °C 59.2 °F /  15.1 °C 30.13 in /  1020.2 hPa NNW 2.3 mph /  3.7 km/h 2.3 mph /  3.7 km/h 84 % 0.00 in /  0 mm
15:26 64.1 °F /  17.8 °C 59.2 °F /  15.1 °C 30.13 in /  1020.2 hPa NW 1.2 mph /  1.9 km/h 1.2 mph /  1.9 km/h 84 % 0.00 in /  0 mm
15:31 64.1 °F /  17.8 °C 59.2 °F /  15.1 °C 30.13 in /  1020.2 hPa NW 1.2 mph /  1.9 km/h 1.2 mph /  1.9 km/h 84 % 0.00 in /  0 mm
15:37 64.2 °F /  17.9 °C 58.9 °F /  14.9 °C 30.13 in /  1020.2 hPa NW 2.3 mph /  3.7 km/h 2.3 mph /  3.7 km/h 83 % 0.00 in /  0 mm
15:42 64.3 °F /  17.9 °C 59.0 °F /  15 °C 30.13 in /  1020.2 hPa NNW 3.5 mph /  5.6 km/h 3.5 mph /  5.6 km/h 83 % 0.00 in /  0 mm
15:47 64.2 °F /  17.9 °C 58.9 °F /  14.9 °C 30.13 in /  1020.2 hPa NW 1.0 mph /  1.6 km/h 1.0 mph /  1.6 km/h 83 % 0.00 in /  0 mm
15:52 64.1 °F /  17.8 °C 58.8 °F /  14.9 °C 30.13 in /  1020.2 hPa Calm     83 % 0.00 in /  0 mm
15:57 64.0 °F /  17.8 °C 58.7 °F /  14.8 °C 30.13 in /  1020.2 hPa Calm     83 % 0.00 in /  0 mm
16:01 64.0 °F /  17.8 °C 59.1 °F /  15.1 °C 30.13 in /  1020.2 hPa Calm     84 % 0.00 in /  0 mm
16:04 63.9 °F /  17.7 °C 59.0 °F /  15 °C 30.13 in /  1020.2 hPa Calm     84 % 0.00 in /  0 mm
16:09 63.8 °F /  17.7 °C 58.9 °F /  14.9 °C 30.13 in /  1020.2 hPa Calm     84 % 0.00 in /  0 mm
16:14 63.7 °F /  17.6 °C 58.8 °F /  14.9 °C 30.13 in /  1020.2 hPa Calm     84 % 0.00 in /  0 mm
16:20 63.5 °F /  17.5 °C 58.9 °F /  14.9 °C 30.13 in /  1020.2 hPa NW 1.2 mph /  1.9 km/h 1.2 mph /  1.9 km/h 85 % 0.00 in /  0 mm
16:25 63.4 °F /  17.4 °C 58.8 °F /  14.9 °C 30.14 in /  1020.5 hPa NW 2.3 mph /  3.7 km/h 2.3 mph /  3.7 km/h 85 % 0.00 in /  0 mm
16:28 63.3 °F /  17.4 °C 58.7 °F /  14.8 °C 30.14 in /  1020.5 hPa Calm     85 % 0.00 in /  0 mm
16:33 63.3 °F /  17.4 °C 58.7 °F /  14.8 °C 30.14 in /  1020.5 hPa Calm     85 % 0.00 in /  0 mm
16:38 63.1 °F /  17.3 °C 58.5 °F /  14.7 °C 30.14 in /  1020.5 hPa NW 1.2 mph /  1.9 km/h 1.2 mph /  1.9 km/h 85 % 0.00 in /  0 mm
16:39 63.2 °F /  17.3 °C 58.6 °F /  14.8 °C 30.14 in /  1020.5 hPa Calm     85 % 0.00 in /  0 mm
16:44 63.0 °F /  17.2 °C 58.7 °F /  14.8 °C 30.14 in /  1020.5 hPa Calm     86 % 0.00 in /  0 mm
16:50 62.8 °F /  17.1 °C 58.5 °F /  14.7 °C 30.14 in /  1020.5 hPa Calm     86 % 0.00 in /  0 mm
16:55 62.7 °F /  17.1 °C 58.5 °F /  14.7 °C 30.15 in /  1020.9 hPa Calm     86 % 0.00 in /  0 mm
17:00 62.4 °F /  16.9 °C 58.5 °F /  14.7 °C 30.15 in /  1020.9 hPa Calm     87 % 0.00 in /  0 mm
17:03 62.2 °F /  16.8 °C 58.3 °F /  14.6 °C 30.15 in /  1020.9 hPa Calm     87 % 0.00 in /  0 mm
17:08 61.8 °F /  16.6 °C 58.2 °F /  14.6 °C 30.15 in /  1020.9 hPa NW 1.2 mph /  1.9 km/h   88 % 0.00 in /  0 mm
17:13 61.6 °F /  16.4 °C 58.0 °F /  14.4 °C 30.15 in /  1020.9 hPa Calm     88 % 0.00 in /  0 mm
17:18 61.5 °F /  16.4 °C 58.2 °F /  14.6 °C 30.15 in /  1020.9 hPa Calm     89 % 0.00 in /  0 mm
17:23 61.5 °F /  16.4 °C 58.2 °F /  14.6 °C 30.15 in /  1020.9 hPa Calm     89 % 0.00 in /  0 mm
17:25 61.4 °F /  16.3 °C 58.1 °F /  14.5 °C 30.15 in /  1020.9 hPa Calm     89 % 0.00 in /  0 mm
17:30 61.4 °F /  16.3 °C 58.1 °F /  14.5 °C 30.15 in /  1020.9 hPa Calm     89 % 0.00 in /  0 mm
17:35 61.3 °F /  16.3 °C 58.0 °F /  14.4 °C 30.15 in /  1020.9 hPa Calm     89 % 0.00 in /  0 mm
17:36 61.3 °F /  16.3 °C 58.0 °F /  14.4 °C 30.15 in /  1020.9 hPa Calm     89 % 0.00 in /  0 mm
17:41 61.2 °F /  16.2 °C 57.9 °F /  14.4 °C 30.15 in /  1020.9 hPa Calm     89 % 0.00 in /  0 mm
17:46 60.9 °F /  16.1 °C 57.9 °F /  14.4 °C 30.15 in /  1020.9 hPa Calm     90 % 0.00 in /  0 mm
17:47 60.9 °F /  16.1 °C 57.6 °F /  14.2 °C 30.15 in /  1020.9 hPa Calm     89 % 0.00 in /  0 mm
17:52 60.6 °F /  15.9 °C 57.7 °F /  14.3 °C 30.15 in /  1020.9 hPa Calm     90 % 0.00 in /  0 mm
17:57 60.3 °F /  15.7 °C 57.4 °F /  14.1 °C 30.15 in /  1020.9 hPa Calm     90 % 0.00 in /  0 mm
18:02 60.0 °F /  15.6 °C 57.4 °F /  14.1 °C 30.14 in /  1020.5 hPa Calm     91 % 0.00 in /  0 mm
18:05 59.9 °F /  15.5 °C 57.3 °F /  14.1 °C 30.15 in /  1020.9 hPa Calm     91 % 0.00 in /  0 mm
18:10 59.6 °F /  15.3 °C 57.0 °F /  13.9 °C 30.15 in /  1020.9 hPa Calm     91 % 0.00 in /  0 mm
18:12 59.5 °F /  15.3 °C 56.9 °F /  13.8 °C 30.14 in /  1020.5 hPa Calm     91 % 0.00 in /  0 mm
18:17 59.3 °F /  15.2 °C 57.0 °F /  13.9 °C 30.15 in /  1020.9 hPa Calm     92 % 0.00 in /  0 mm
18:18 59.3 °F /  15.2 °C 57.0 °F /  13.9 °C 30.15 in /  1020.9 hPa Calm     92 % 0.00 in /  0 mm
18:24 59.1 °F /  15.1 °C 56.8 °F /  13.8 °C 30.15 in /  1020.9 hPa WNW 1.2 mph /  1.9 km/h 1.2 mph /  1.9 km/h 92 % 0.00 in /  0 mm
18:29 58.9 °F /  14.9 °C 56.3 °F /  13.5 °C 30.15 in /  1020.9 hPa WNW 1.2 mph /  1.9 km/h 1.2 mph /  1.9 km/h 91 % 0.00 in /  0 mm
18:31 58.9 °F /  14.9 °C 56.6 °F /  13.7 °C 30.15 in /  1020.9 hPa WNW 1.2 mph /  1.9 km/h 1.2 mph /  1.9 km/h 92 % 0.00 in /  0 mm
18:36 58.7 °F /  14.8 °C 56.4 °F /  13.6 °C 30.15 in /  1020.9 hPa WNW 2.3 mph /  3.7 km/h 2.3 mph /  3.7 km/h 92 % 0.00 in /  0 mm
18:41 58.4 °F /  14.7 °C 56.1 °F /  13.4 °C 30.14 in /  1020.5 hPa NW 1.2 mph /  1.9 km/h 1.2 mph /  1.9 km/h 92 % 0.00 in /  0 mm
18:44 58.3 °F /  14.6 °C 56.0 °F /  13.3 °C 30.14 in /  1020.5 hPa NW 2.0 mph /  3.2 km/h 2.0 mph /  3.2 km/h 92 % 0.00 in /  0 mm
18:49 58.0 °F /  14.4 °C 56.0 °F /  13.3 °C 30.14 in /  1020.5 hPa NW 1.2 mph /  1.9 km/h 1.2 mph /  1.9 km/h 93 % 0.00 in /  0 mm
18:50 58.0 °F /  14.4 °C 56.0 °F /  13.3 °C 30.14 in /  1020.5 hPa NW 1.2 mph /  1.9 km/h 1.2 mph /  1.9 km/h 93 % 0.00 in /  0 mm
18:56 57.9 °F /  14.4 °C 56.2 °F /  13.4 °C 30.14 in /  1020.5 hPa Calm     94 % 0.00 in /  0 mm
18:58 57.8 °F /  14.3 °C 55.8 °F /  13.2 °C 30.14 in /  1020.5 hPa NW 1.2 mph /  1.9 km/h 1.2 mph /  1.9 km/h 93 % 0.00 in /  0 mm
19:02 57.7 °F /  14.3 °C 56.0 °F /  13.3 °C 30.15 in /  1020.9 hPa NW 1.2 mph /  1.9 km/h   94 % 0.00 in /  0 mm
19:07 57.6 °F /  14.2 °C 55.9 °F /  13.3 °C 30.14 in /  1020.5 hPa NW 1.2 mph /  1.9 km/h 1.2 mph /  1.9 km/h 94 % 0.00 in /  0 mm
19:09 57.6 °F /  14.2 °C 55.9 °F /  13.3 °C 30.14 in /  1020.5 hPa WNW 2.0 mph /  3.2 km/h 2.0 mph /  3.2 km/h 94 % 0.00 in /  0 mm
19:14 57.5 °F /  14.2 °C 55.8 °F /  13.2 °C 30.14 in /  1020.5 hPa Calm     94 % 0.00 in /  0 mm
19:16 57.4 °F /  14.1 °C 55.7 °F /  13.2 °C 30.14 in /  1020.5 hPa Calm     94 % 0.00 in /  0 mm
19:21 57.4 °F /  14.1 °C 55.7 °F /  13.2 °C 30.14 in /  1020.5 hPa Calm     94 % 0.00 in /  0 mm
19:26 57.2 °F /  14 °C 55.5 °F /  13.1 °C 30.14 in /  1020.5 hPa Calm     94 % 0.00 in /  0 mm
19:28 57.2 °F /  14 °C 55.5 °F /  13.1 °C 30.14 in /  1020.5 hPa Calm     94 % 0.00 in /  0 mm
19:34 56.9 °F /  13.8 °C 55.2 °F /  12.9 °C 30.14 in /  1020.5 hPa Calm     94 % 0.00 in /  0 mm
19:40 56.8 °F /  13.8 °C 55.1 °F /  12.8 °C 30.14 in /  1020.5 hPa Calm     94 % 0.00 in /  0 mm
19:45 56.8 °F /  13.8 °C 55.4 °F /  13 °C 30.14 in /  1020.5 hPa NW 1.2 mph /  1.9 km/h 1.2 mph /  1.9 km/h 95 % 0.00 in /  0 mm
19:50 56.7 °F /  13.7 °C 55.3 °F /  12.9 °C 30.14 in /  1020.5 hPa WNW 2.3 mph /  3.7 km/h 2.3 mph /  3.7 km/h 95 % 0.00 in /  0 mm
19:55 56.7 °F /  13.7 °C 55.3 °F /  12.9 °C 30.14 in /  1020.5 hPa NW 2.3 mph /  3.7 km/h 2.3 mph /  3.7 km/h 95 % 0.00 in /  0 mm
20:00 56.6 °F /  13.7 °C 55.2 °F /  12.9 °C 30.14 in /  1020.5 hPa WNW 2.3 mph /  3.7 km/h 2.3 mph /  3.7 km/h 95 % 0.00 in /  0 mm
20:05 56.5 °F /  13.6 °C 55.1 °F /  12.8 °C 30.14 in /  1020.5 hPa NW 1.2 mph /  1.9 km/h   95 % 0.00 in /  0 mm
20:10 56.4 °F /  13.6 °C 55.0 °F /  12.8 °C 30.13 in /  1020.2 hPa WNW 1.2 mph /  1.9 km/h 1.3 mph /  2.1 km/h 95 % 0.00 in /  0 mm
20:16 56.4 °F /  13.6 °C 55.0 °F /  12.8 °C 30.13 in /  1020.2 hPa WNW 2.3 mph /  3.7 km/h 2.3 mph /  3.7 km/h 95 % 0.00 in /  0 mm
20:19 56.4 °F /  13.6 °C 55.0 °F /  12.8 °C 30.14 in /  1020.5 hPa Calm     95 % 0.00 in /  0 mm
20:24 56.3 °F /  13.5 °C 54.9 °F /  12.7 °C 30.14 in /  1020.5 hPa NW 1.2 mph /  1.9 km/h   95 % 0.00 in /  0 mm
20:25 56.3 °F /  13.5 °C 54.9 °F /  12.7 °C 30.14 in /  1020.5 hPa Calm     95 % 0.00 in /  0 mm
20:32 56.1 °F /  13.4 °C 54.7 °F /  12.6 °C 30.14 in /  1020.5 hPa Calm     95 % 0.00 in /  0 mm
20:36 56.1 °F /  13.4 °C 54.7 °F /  12.6 °C 30.14 in /  1020.5 hPa Calm     95 % 0.00 in /  0 mm
20:41 56.0 °F /  13.3 °C 54.6 °F /  12.6 °C 30.14 in /  1020.5 hPa Calm     95 % 0.00 in /  0 mm
20:46 55.8 °F /  13.2 °C 54.4 °F /  12.4 °C 30.14 in /  1020.5 hPa Calm     95 % 0.00 in /  0 mm
20:51 55.7 °F /  13.2 °C 54.3 °F /  12.4 °C 30.14 in /  1020.5 hPa Calm     95 % 0.00 in /  0 mm
20:56 55.7 °F /  13.2 °C 54.3 °F /  12.4 °C 30.14 in /  1020.5 hPa NW 1.2 mph /  1.9 km/h   95 % 0.00 in /  0 mm
21:01 55.8 °F /  13.2 °C 54.7 °F /  12.6 °C 30.14 in /  1020.5 hPa Calm     96 % 0.00 in /  0 mm
21:06 55.8 °F /  13.2 °C 54.4 °F /  12.4 °C 30.14 in /  1020.5 hPa Calm     95 % 0.00 in /  0 mm
21:09 55.8 °F /  13.2 °C 54.7 °F /  12.6 °C 30.14 in /  1020.5 hPa Calm     96 % 0.00 in /  0 mm
21:15 55.8 °F /  13.2 °C 54.7 °F /  12.6 °C 30.15 in /  1020.9 hPa Calm     96 % 0.00 in /  0 mm
21:17 55.8 °F /  13.2 °C 54.7 °F /  12.6 °C 30.15 in /  1020.9 hPa Calm     96 % 0.00 in /  0 mm
21:22 55.8 °F /  13.2 °C 54.4 °F /  12.4 °C 30.15 in /  1020.9 hPa Calm     95 % 0.00 in /  0 mm
21:27 55.8 °F /  13.2 °C 54.4 °F /  12.4 °C 30.15 in /  1020.9 hPa Calm     95 % 0.00 in /  0 mm
21:32 55.7 °F /  13.2 °C 54.3 °F /  12.4 °C 30.15 in /  1020.9 hPa Calm     95 % 0.00 in /  0 mm
21:37 55.7 °F /  13.2 °C 54.3 °F /  12.4 °C 30.15 in /  1020.9 hPa Calm     95 % 0.00 in /  0 mm
21:42 55.7 °F /  13.2 °C 54.6 °F /  12.6 °C 30.15 in /  1020.9 hPa Calm     96 % 0.00 in /  0 mm
21:48 55.7 °F /  13.2 °C 54.6 °F /  12.6 °C 30.15 in /  1020.9 hPa Calm     96 % 0.00 in /  0 mm
21:53 55.7 °F /  13.2 °C 54.3 °F /  12.4 °C 30.15 in /  1020.9 hPa Calm     95 % 0.00 in /  0 mm
21:54 55.7 °F /  13.2 °C 54.3 °F /  12.4 °C 30.15 in /  1020.9 hPa Calm     95 % 0.00 in /  0 mm
21:59 55.7 °F /  13.2 °C 54.3 °F /  12.4 °C 30.15 in /  1020.9 hPa Calm     95 % 0.00 in /  0 mm
22:04 55.7 °F /  13.2 °C 54.3 °F /  12.4 °C 30.15 in /  1020.9 hPa Calm     95 % 0.00 in /  0 mm
22:05 55.6 °F /  13.1 °C 54.5 °F /  12.5 °C 30.15 in /  1020.9 hPa Calm     96 % 0.00 in /  0 mm
22:11 55.6 °F /  13.1 °C 54.5 °F /  12.5 °C 30.15 in /  1020.9 hPa Calm     96 % 0.00 in /  0 mm
22:13 55.6 °F /  13.1 °C 54.5 °F /  12.5 °C 30.15 in /  1020.9 hPa Calm     96 % 0.00 in /  0 mm
22:19 55.5 °F /  13.1 °C 54.4 °F /  12.4 °C 30.15 in /  1020.9 hPa Calm     96 % 0.00 in /  0 mm
22:24 55.5 °F /  13.1 °C 54.4 °F /  12.4 °C 30.16 in /  1021.2 hPa Calm     96 % 0.00 in /  0 mm
22:30 55.4 °F /  13 °C 54.3 °F /  12.4 °C 30.16 in /  1021.2 hPa NNW 1.2 mph /  1.9 km/h 1.2 mph /  1.9 km/h 96 % 0.00 in /  0 mm
22:32 55.4 °F /  13 °C 54.3 °F /  12.4 °C 30.16 in /  1021.2 hPa Calm     96 % 0.00 in /  0 mm
22:37 55.4 °F /  13 °C 54.3 °F /  12.4 °C 30.17 in /  1021.6 hPa Calm     96 % 0.00 in /  0 mm
22:42 55.4 °F /  13 °C 54.3 °F /  12.4 °C 30.16 in /  1021.2 hPa Calm     96 % 0.00 in /  0 mm
22:47 55.3 °F /  12.9 °C 54.2 °F /  12.3 °C 30.16 in /  1021.2 hPa Calm     96 % 0.00 in /  0 mm
22:52 55.3 °F /  12.9 °C 54.2 °F /  12.3 °C 30.17 in /  1021.6 hPa NNW 1.0 mph /  1.6 km/h 1.0 mph /  1.6 km/h 96 % 0.00 in /  0 mm
22:57 55.4 °F /  13 °C 54.3 °F /  12.4 °C 30.17 in /  1021.6 hPa Calm     96 % 0.00 in /  0 mm
22:58 55.4 °F /  13 °C 54.3 °F /  12.4 °C 30.17 in /  1021.6 hPa SSW 1.2 mph /  1.9 km/h 1.2 mph /  1.9 km/h 96 % 0.00 in /  0 mm
23:03 55.3 °F /  12.9 °C 54.2 °F /  12.3 °C 30.17 in /  1021.6 hPa Calm     96 % 0.00 in /  0 mm
23:06 55.3 °F /  12.9 °C 54.2 °F /  12.3 °C 30.18 in /  1021.9 hPa Calm     96 % 0.00 in /  0 mm
23:12 55.3 °F /  12.9 °C 54.2 °F /  12.3 °C 30.17 in /  1021.6 hPa Calm     96 % 0.00 in /  0 mm
23:17 55.2 °F /  12.9 °C 54.1 °F /  12.3 °C 30.17 in /  1021.6 hPa Calm     96 % 0.00 in /  0 mm
23:22 55.2 °F /  12.9 °C 54.1 °F /  12.3 °C 30.17 in /  1021.6 hPa Calm     96 % 0.00 in /  0 mm
23:27 55.2 °F /  12.9 °C 54.1 °F /  12.3 °C 30.18 in /  1021.9 hPa Calm     96 % 0.00 in /  0 mm
23:32 55.1 °F /  12.8 °C 54.0 °F /  12.2 °C 30.18 in /  1021.9 hPa Calm     96 % 0.00 in /  0 mm
23:33 55.1 °F /  12.8 °C 54.0 °F /  12.2 °C 30.18 in /  1021.9 hPa Calm     96 % 0.00 in /  0 mm
23:38 55.1 °F /  12.8 °C 54.0 °F /  12.2 °C 30.17 in /  1021.6 hPa Calm     96 % 0.00 in /  0 mm
23:39 55.1 °F /  12.8 °C 54.0 °F /  12.2 °C 30.17 in /  1021.6 hPa Calm     96 % 0.00 in /  0 mm
23:44 55.0 °F /  12.8 °C 53.9 °F /  12.2 °C 30.17 in /  1021.6 hPa Calm     96 % 0.00 in /  0 mm
23:49 54.9 °F /  12.7 °C 53.8 °F /  12.1 °C 30.17 in /  1021.6 hPa Calm     96 % 0.00 in /  0 mm
23:54 54.9 °F /  12.7 °C 53.8 °F /  12.1 °C 30.17 in /  1021.6 hPa Calm     96 % 0.00 in /  0 mm
23:57 54.8 °F /  12.7 °C 53.7 °F /  12.1 °C 30.17 in /  1021.6 hPa Calm     96 % 0.00 in /  0 mm
Park Place, Exeter, Tulare County, California, USA
Compliments of Weather Underground - 3 mb